sensor_id;sensor_type;location;lat;lon;timestamp;pressure;altitude;pressure_sealevel;temperature;humidity
55373;BME280;41249;47.838;16.490;2023-04-23T00:02:03;98838.25;;;7.00;56.07
55373;BME280;41249;47.838;16.490;2023-04-23T00:04:32;98836.59;;;6.88;56.10
55373;BME280;41249;47.838;16.490;2023-04-23T00:07:04;98831.44;;;6.87;56.69
55373;BME280;41249;47.838;16.490;2023-04-23T00:09:31;98821.63;;;6.89;55.96
55373;BME280;41249;47.838;16.490;2023-04-23T00:11:59;98824.81;;;6.95;57.28
55373;BME280;41249;47.838;16.490;2023-04-23T00:14:27;98815.81;;;7.05;56.94
55373;BME280;41249;47.838;16.490;2023-04-23T00:16:56;98816.94;;;6.97;57.14
55373;BME280;41249;47.838;16.490;2023-04-23T00:19:23;98813.78;;;6.95;56.94
55373;BME280;41249;47.838;16.490;2023-04-23T00:21:51;98824.03;;;6.98;56.87
55373;BME280;41249;47.838;16.490;2023-04-23T00:24:20;98816.97;;;7.00;57.79
55373;BME280;41249;47.838;16.490;2023-04-23T00:26:46;98806.31;;;6.99;56.56
55373;BME280;41249;47.838;16.490;2023-04-23T00:29:13;98811.78;;;6.92;57.27
55373;BME280;41249;47.838;16.490;2023-04-23T00:31:40;98810.56;;;6.86;57.87
55373;BME280;41249;47.838;16.490;2023-04-23T00:34:07;98794.38;;;6.84;57.22
55373;BME280;41249;47.838;16.490;2023-04-23T00:36:33;98801.06;;;6.76;58.21
55373;BME280;41249;47.838;16.490;2023-04-23T00:39:00;98797.09;;;6.74;57.71
55373;BME280;41249;47.838;16.490;2023-04-23T00:41:27;98799.34;;;6.61;58.38
55373;BME280;41249;47.838;16.490;2023-04-23T00:43:55;98803.38;;;6.71;57.76
55373;BME280;41249;47.838;16.490;2023-04-23T00:46:24;98800.94;;;6.65;58.47
55373;BME280;41249;47.838;16.490;2023-04-23T00:48:54;98799.81;;;6.70;57.39
55373;BME280;41249;47.838;16.490;2023-04-23T00:51:21;98794.34;;;6.74;58.59
55373;BME280;41249;47.838;16.490;2023-04-23T00:53:51;98804.97;;;6.75;58.22
55373;BME280;41249;47.838;16.490;2023-04-23T00:56:18;98795.59;;;6.83;58.12
55373;BME280;41249;47.838;16.490;2023-04-23T00:58:46;98793.97;;;6.79;57.76
55373;BME280;41249;47.838;16.490;2023-04-23T01:01:12;98795.63;;;6.90;56.89
55373;BME280;41249;47.838;16.490;2023-04-23T01:03:41;98797.97;;;6.88;57.01
55373;BME280;41249;47.838;16.490;2023-04-23T01:06:08;98800.28;;;6.79;57.78
55373;BME280;41249;47.838;16.490;2023-04-23T01:08:35;98801.47;;;6.82;58.35
55373;BME280;41249;47.838;16.490;2023-04-23T01:11:04;98800.28;;;6.79;57.99
55373;BME280;41249;47.838;16.490;2023-04-23T01:13:31;98797.53;;;6.83;57.37
55373;BME280;41249;47.838;16.490;2023-04-23T01:15:58;98790.38;;;6.75;57.30
55373;BME280;41249;47.838;16.490;2023-04-23T01:18:25;98790.78;;;6.73;56.94
55373;BME280;41249;47.838;16.490;2023-04-23T01:20:52;98798.59;;;6.68;57.23
55373;BME280;41249;47.838;16.490;2023-04-23T01:23:19;98791.06;;;6.61;58.30
55373;BME280;41249;47.838;16.490;2023-04-23T01:25:46;98787.09;;;6.55;57.59
55373;BME280;41249;47.838;16.490;2023-04-23T01:28:13;98778.44;;;6.56;57.49
55373;BME280;41249;47.838;16.490;2023-04-23T01:30:42;98785.09;;;6.52;58.61
55373;BME280;41249;47.838;16.490;2023-04-23T01:33:09;98782.69;;;6.47;58.86
55373;BME280;41249;47.838;16.490;2023-04-23T01:35:37;98787.34;;;6.39;58.11
55373;BME280;41249;47.838;16.490;2023-04-23T01:38:06;98785.84;;;6.45;59.32
55373;BME280;41249;47.838;16.490;2023-04-23T01:40:34;98781.13;;;6.46;59.28
55373;BME280;41249;47.838;16.490;2023-04-23T01:43:01;98773.28;;;6.51;58.61
55373;BME280;41249;47.838;16.490;2023-04-23T01:45:29;98781.13;;;6.49;58.03
55373;BME280;41249;47.838;16.490;2023-04-23T01:47:57;98787.47;;;6.53;58.47
55373;BME280;41249;47.838;16.490;2023-04-23T01:50:25;98784.19;;;6.37;58.35
55373;BME280;41249;47.838;16.490;2023-04-23T01:52:53;98776.13;;;6.11;59.07
55373;BME280;41249;47.838;16.490;2023-04-23T01:55:19;98771.41;;;6.12;59.99
55373;BME280;41249;47.838;16.490;2023-04-23T01:57:46;98775.31;;;6.11;60.37
55373;BME280;41249;47.838;16.490;2023-04-23T02:00:14;98772.13;;;6.05;59.27
55373;BME280;41249;47.838;16.490;2023-04-23T02:02:42;98768.91;;;5.99;61.10
55373;BME280;41249;47.838;16.490;2023-04-23T02:05:12;98767.34;;;6.02;60.43
55373;BME280;41249;47.838;16.490;2023-04-23T02:07:39;98766.59;;;6.05;59.35
55373;BME280;41249;47.838;16.490;2023-04-23T02:10:07;98769.00;;;6.07;60.76
55373;BME280;41249;47.838;16.490;2023-04-23T02:12:35;98771.41;;;6.15;59.69
55373;BME280;41249;47.838;16.490;2023-04-23T02:15:02;98770.63;;;6.15;61.21
55373;BME280;41249;47.838;16.490;2023-04-23T02:17:28;98767.84;;;6.15;59.85
55373;BME280;41249;47.838;16.490;2023-04-23T02:19:55;98765.91;;;6.15;59.35
55373;BME280;41249;47.838;16.490;2023-04-23T02:22:22;98763.63;;;6.24;59.90
55373;BME280;41249;47.838;16.490;2023-04-23T02:24:54;98759.53;;;6.04;59.45
55373;BME280;41249;47.838;16.490;2023-04-23T02:27:20;98759.19;;;5.69;62.17
55373;BME280;41249;47.838;16.490;2023-04-23T02:29:47;98767.09;;;5.74;61.56
55373;BME280;41249;47.838;16.490;2023-04-23T02:32:14;98768.03;;;5.88;60.88
55373;BME280;41249;47.838;16.490;2023-04-23T02:34:41;98768.44;;;5.90;60.06
55373;BME280;41249;47.838;16.490;2023-04-23T02:37:08;98758.19;;;5.87;61.27
55373;BME280;41249;47.838;16.490;2023-04-23T02:39:35;98758.63;;;5.93;61.04
55373;BME280;41249;47.838;16.490;2023-04-23T02:42:04;98761.44;;;5.96;60.75
55373;BME280;41249;47.838;16.490;2023-04-23T02:44:31;98754.81;;;6.08;59.78
55373;BME280;41249;47.838;16.490;2023-04-23T02:46:57;98759.94;;;6.10;60.41
55373;BME280;41249;47.838;16.490;2023-04-23T02:49:24;98762.75;;;6.13;60.58
55373;BME280;41249;47.838;16.490;2023-04-23T02:51:51;98758.03;;;6.14;60.60
55373;BME280;41249;47.838;16.490;2023-04-23T02:54:18;98765.03;;;6.04;61.15
55373;BME280;41249;47.838;16.490;2023-04-23T02:56:44;98761.84;;;6.02;61.12
55373;BME280;41249;47.838;16.490;2023-04-23T02:59:11;98748.41;;;5.97;61.17
55373;BME280;41249;47.838;16.490;2023-04-23T03:01:38;98751.13;;;5.90;61.47
55373;BME280;41249;47.838;16.490;2023-04-23T03:04:04;98751.41;;;5.78;61.33
55373;BME280;41249;47.838;16.490;2023-04-23T03:06:32;98748.00;;;5.55;62.35
55373;BME280;41249;47.838;16.490;2023-04-23T03:09:00;98750.69;;;5.48;62.47
55373;BME280;41249;47.838;16.490;2023-04-23T03:11:26;98747.16;;;5.47;62.46
55373;BME280;41249;47.838;16.490;2023-04-23T03:13:53;98751.91;;;5.50;62.10
55373;BME280;41249;47.838;16.490;2023-04-23T03:16:20;98755.50;;;5.54;62.49
55373;BME280;41249;47.838;16.490;2023-04-23T03:18:47;98755.06;;;5.52;62.46
55373;BME280;41249;47.838;16.490;2023-04-23T03:21:13;98749.47;;;5.45;62.64
55373;BME280;41249;47.838;16.490;2023-04-23T03:23:40;98755.31;;;5.37;63.52
55373;BME280;41249;47.838;16.490;2023-04-23T03:26:07;98747.41;;;5.35;62.83
55373;BME280;41249;47.838;16.490;2023-04-23T03:28:33;98751.69;;;5.32;63.27
55373;BME280;41249;47.838;16.490;2023-04-23T03:31:00;98753.63;;;5.28;61.85
55373;BME280;41249;47.838;16.490;2023-04-23T03:33:27;98751.75;;;5.36;62.70
55373;BME280;41249;47.838;16.490;2023-04-23T03:35:53;98754.97;;;5.42;62.91
55373;BME280;41249;47.838;16.490;2023-04-23T03:38:20;98758.53;;;5.46;62.22
55373;BME280;41249;47.838;16.490;2023-04-23T03:40:47;98754.97;;;5.42;62.74
55373;BME280;41249;47.838;16.490;2023-04-23T03:43:13;98747.13;;;5.44;62.74
55373;BME280;41249;47.838;16.490;2023-04-23T03:45:40;98751.88;;;5.47;62.62
55373;BME280;41249;47.838;16.490;2023-04-23T03:48:07;98752.63;;;5.44;63.02
55373;BME280;41249;47.838;16.490;2023-04-23T03:50:33;98745.13;;;5.41;62.13
55373;BME280;41249;47.838;16.490;2023-04-23T03:53:06;98754.13;;;5.38;62.67
55373;BME280;41249;47.838;16.490;2023-04-23T03:55:33;98761.09;;;5.28;63.83
55373;BME280;41249;47.838;16.490;2023-04-23T03:58:00;98762.94;;;5.17;62.21
55373;BME280;41249;47.838;16.490;2023-04-23T04:00:27;98767.66;;;5.16;63.22
55373;BME280;41249;47.838;16.490;2023-04-23T04:02:54;98763.28;;;5.15;63.92
55373;BME280;41249;47.838;16.490;2023-04-23T04:05:21;98755.47;;;5.17;64.79
55373;BME280;41249;47.838;16.490;2023-04-23T04:07:48;98759.06;;;5.21;63.97
55373;BME280;41249;47.838;16.490;2023-04-23T04:10:15;98759.88;;;5.25;63.95
55373;BME280;41249;47.838;16.490;2023-04-23T04:12:41;98759.56;;;5.30;64.02
55373;BME280;41249;47.838;16.490;2023-04-23T04:15:10;98760.44;;;5.38;63.43
55373;BME280;41249;47.838;16.490;2023-04-23T04:17:36;98756.19;;;5.44;63.38
55373;BME280;41249;47.838;16.490;2023-04-23T04:20:03;98756.25;;;5.51;62.49
55373;BME280;41249;47.838;16.490;2023-04-23T04:22:30;98754.28;;;5.52;62.55
55373;BME280;41249;47.838;16.490;2023-04-23T04:24:56;98757.47;;;5.54;62.49
55373;BME280;41249;47.838;16.490;2023-04-23T04:27:23;98753.53;;;5.55;62.93
55373;BME280;41249;47.838;16.490;2023-04-23T04:29:49;98757.47;;;5.54;63.70
55373;BME280;41249;47.838;16.490;2023-04-23T04:32:17;98756.25;;;5.51;63.22
55373;BME280;41249;47.838;16.490;2023-04-23T04:34:44;98760.16;;;5.50;63.23
55373;BME280;41249;47.838;16.490;2023-04-23T04:37:11;98756.28;;;5.55;63.06
55373;BME280;41249;47.838;16.490;2023-04-23T04:39:38;98766.25;;;5.66;63.11
55373;BME280;41249;47.838;16.490;2023-04-23T04:42:05;98767.09;;;5.74;62.98
55373;BME280;41249;47.838;16.490;2023-04-23T04:44:32;98764.81;;;5.83;62.74
55373;BME280;41249;47.838;16.490;2023-04-23T04:46:59;98773.09;;;5.83;62.28
55373;BME280;41249;47.838;16.490;2023-04-23T04:49:26;98776.25;;;5.85;62.69
55373;BME280;41249;47.838;16.490;2023-04-23T04:51:52;98776.69;;;5.90;62.48
55373;BME280;41249;47.838;16.490;2023-04-23T04:54:19;98771.25;;;5.97;62.72
55373;BME280;41249;47.838;16.490;2023-04-23T04:56:47;98769.41;;;6.09;62.06
55373;BME280;41249;47.838;16.490;2023-04-23T04:59:13;98777.69;;;6.12;62.24
55373;BME280;41249;47.838;16.490;2023-04-23T05:01:40;98773.81;;;6.20;61.92
55373;BME280;41249;47.838;16.490;2023-04-23T05:04:06;98779.38;;;6.27;61.83
55373;BME280;41249;47.838;16.490;2023-04-23T05:06:33;98777.06;;;6.33;61.56
55373;BME280;41249;47.838;16.490;2023-04-23T05:09:00;98787.75;;;6.38;62.01
55373;BME280;41249;47.838;16.490;2023-04-23T05:11:26;98783.88;;;6.46;61.05
55373;BME280;41249;47.838;16.490;2023-04-23T05:13:53;98789.03;;;6.54;61.20
55373;BME280;41249;47.838;16.490;2023-04-23T05:16:19;98783.16;;;6.59;61.20
55373;BME280;41249;47.838;16.490;2023-04-23T05:18:46;98788.31;;;6.64;61.40
55373;BME280;41249;47.838;16.490;2023-04-23T05:21:13;98793.94;;;6.72;61.53
55373;BME280;41249;47.838;16.490;2023-04-23T05:23:40;98789.25;;;6.83;60.99
55373;BME280;41249;47.838;16.490;2023-04-23T05:26:06;98782.22;;;6.89;59.78
55373;BME280;41249;47.838;16.490;2023-04-23T05:28:33;98779.09;;;6.97;60.38
55373;BME280;41249;47.838;16.490;2023-04-23T05:30:59;98784.72;;;7.18;59.46
55373;BME280;41249;47.838;16.490;2023-04-23T05:33:26;98788.72;;;7.28;59.11
55373;BME280;41249;47.838;16.490;2023-04-23T05:36:04;98788.00;;;7.45;58.58
55373;BME280;41249;47.838;16.490;2023-04-23T05:38:31;98782.88;;;7.54;57.60
55373;BME280;41249;47.838;16.490;2023-04-23T05:40:58;98798.69;;;7.57;57.83
55373;BME280;41249;47.838;16.490;2023-04-23T05:43:25;98787.25;;;7.62;57.73
55373;BME280;41249;47.838;16.490;2023-04-23T05:45:51;98791.22;;;7.68;58.19
55373;BME280;41249;47.838;16.490;2023-04-23T05:48:18;98794.00;;;7.79;57.73
55373;BME280;41249;47.838;16.490;2023-04-23T05:50:44;98792.84;;;7.98;57.30
55373;BME280;41249;47.838;16.490;2023-04-23T05:53:11;98794.88;;;8.15;57.16
55373;BME280;41249;47.838;16.490;2023-04-23T05:55:37;98790.53;;;8.14;56.73
55373;BME280;41249;47.838;16.490;2023-04-23T05:58:04;98795.28;;;8.20;56.11
55373;BME280;41249;47.838;16.490;2023-04-23T06:00:31;98801.59;;;8.28;57.23
55373;BME280;41249;47.838;16.490;2023-04-23T06:02:57;98794.50;;;8.37;56.12
55373;BME280;41249;47.838;16.490;2023-04-23T06:05:24;98800.84;;;8.48;55.98
55373;BME280;41249;47.838;16.490;2023-04-23T06:07:51;98803.97;;;8.65;56.12
55373;BME280;41249;47.838;16.490;2023-04-23T06:10:18;98810.66;;;8.95;56.14
55373;BME280;41249;47.838;16.490;2023-04-23T06:12:44;98809.44;;;9.03;55.58
55373;BME280;41249;47.838;16.490;2023-04-23T06:15:11;98806.25;;;9.15;55.17
55373;BME280;41249;47.838;16.490;2023-04-23T06:17:38;98818.06;;;9.27;55.17
55373;BME280;41249;47.838;16.490;2023-04-23T06:20:04;98819.25;;;9.43;54.52
55373;BME280;41249;47.838;16.490;2023-04-23T06:22:31;98820.00;;;9.51;55.03
55373;BME280;41249;47.838;16.490;2023-04-23T06:24:58;98824.31;;;9.59;54.94
55373;BME280;41249;47.838;16.490;2023-04-23T06:27:24;98825.81;;;9.74;53.98
55373;BME280;41249;47.838;16.490;2023-04-23T06:29:52;98824.31;;;9.62;54.06
55373;BME280;41249;47.838;16.490;2023-04-23T06:32:20;98828.63;;;9.70;54.69
55373;BME280;41249;47.838;16.490;2023-04-23T06:34:46;98830.88;;;9.90;53.79
55373;BME280;41249;47.838;16.490;2023-04-23T06:37:26;98828.03;;;10.04;53.41
55373;BME280;41249;47.838;16.490;2023-04-23T06:39:55;98823.25;;;10.08;53.50
55373;BME280;41249;47.838;16.490;2023-04-23T06:42:21;98823.97;;;10.22;52.88
55373;BME280;41249;47.838;16.490;2023-04-23T06:44:48;98828.63;;;10.32;52.85
55373;BME280;41249;47.838;16.490;2023-04-23T06:47:14;98835.69;;;10.48;52.12
55373;BME280;41249;47.838;16.490;2023-04-23T06:49:41;98831.63;;;10.59;52.59
55373;BME280;41249;47.838;16.490;2023-04-23T06:52:07;98833.59;;;10.62;51.29
55373;BME280;41249;47.838;16.490;2023-04-23T06:54:34;98829.22;;;10.61;52.75
55373;BME280;41249;47.838;16.490;2023-04-23T06:57:00;98828.31;;;10.75;52.63
55373;BME280;41249;47.838;16.490;2023-04-23T06:59:27;98822.63;;;10.89;52.79
55373;BME280;41249;47.838;16.490;2023-04-23T07:01:53;98828.91;;;10.96;51.51
55373;BME280;41249;47.838;16.490;2023-04-23T07:04:20;98821.63;;;11.09;51.72
55373;BME280;41249;47.838;16.490;2023-04-23T07:06:46;98817.63;;;11.14;51.53
55373;BME280;41249;47.838;16.490;2023-04-23T07:09:13;98820.03;;;11.12;51.57
55373;BME280;41249;47.838;16.490;2023-04-23T07:11:40;98814.28;;;11.26;51.31
55373;BME280;41249;47.838;16.490;2023-04-23T07:14:06;98814.97;;;11.37;51.27
55373;BME280;41249;47.838;16.490;2023-04-23T07:16:34;98817.25;;;11.46;51.20
55373;BME280;41249;47.838;16.490;2023-04-23T07:19:01;98813.19;;;11.57;50.93
55373;BME280;41249;47.838;16.490;2023-04-23T07:21:28;98822.03;;;11.79;50.44
55373;BME280;41249;47.838;16.490;2023-04-23T07:23:55;98815.75;;;11.71;49.77
55373;BME280;41249;47.838;16.490;2023-04-23T07:26:22;98818.56;;;11.68;49.09
55373;BME280;41249;47.838;16.490;2023-04-23T07:28:49;98824.47;;;11.73;49.95
55373;BME280;41249;47.838;16.490;2023-04-23T07:31:18;98825.59;;;11.80;50.34
55373;BME280;41249;47.838;16.490;2023-04-23T07:33:46;98823.72;;;12.26;50.00
55373;BME280;41249;47.838;16.490;2023-04-23T07:36:12;98816.91;;;12.31;49.42
55373;BME280;41249;47.838;16.490;2023-04-23T07:38:39;98815.94;;;12.41;49.21
55373;BME280;41249;47.838;16.490;2023-04-23T07:41:06;98820.81;;;12.60;48.47
55373;BME280;41249;47.838;16.490;2023-04-23T07:43:32;98821.81;;;12.73;48.15
55373;BME280;41249;47.838;16.490;2023-04-23T07:45:58;98812.34;;;12.90;48.81
55373;BME280;41249;47.838;16.490;2023-04-23T07:48:25;98815.09;;;12.94;48.61
55373;BME280;41249;47.838;16.490;2023-04-23T07:50:51;98816.59;;;12.98;48.62
55373;BME280;41249;47.838;16.490;2023-04-23T07:53:19;98808.94;;;13.02;46.79
55373;BME280;41249;47.838;16.490;2023-04-23T07:55:45;98813.25;;;13.07;47.24
55373;BME280;41249;47.838;16.490;2023-04-23T07:58:11;98817.47;;;13.35;48.42
55373;BME280;41249;47.838;16.490;2023-04-23T08:00:38;98821.03;;;13.58;47.35
55373;BME280;41249;47.838;16.490;2023-04-23T08:03:04;98822.66;;;13.56;45.57
55373;BME280;41249;47.838;16.490;2023-04-23T08:05:31;98820.97;;;13.62;46.09
55373;BME280;41249;47.838;16.490;2023-04-23T08:07:57;98821.34;;;13.80;46.77
55373;BME280;41249;47.838;16.490;2023-04-23T08:10:24;98813.44;;;14.14;44.77
55373;BME280;41249;47.838;16.490;2023-04-23T08:12:50;98810.72;;;14.11;46.10
55373;BME280;41249;47.838;16.490;2023-04-23T08:15:17;98808.56;;;14.35;44.77
55373;BME280;41249;47.838;16.490;2023-04-23T08:17:43;98805.91;;;14.63;45.70
55373;BME280;41249;47.838;16.490;2023-04-23T08:20:10;98801.09;;;14.64;45.61
55373;BME280;41249;47.838;16.490;2023-04-23T08:22:36;98803.38;;;14.69;43.27
55373;BME280;41249;47.838;16.490;2023-04-23T08:25:03;98807.53;;;14.93;44.72
55373;BME280;41249;47.838;16.490;2023-04-23T08:27:29;98811.13;;;14.93;44.11
55373;BME280;41249;47.838;16.490;2023-04-23T08:29:56;98805.00;;;14.99;42.78
55373;BME280;41249;47.838;16.490;2023-04-23T08:32:22;98809.72;;;15.02;43.52
55373;BME280;41249;47.838;16.490;2023-04-23T08:34:49;98802.03;;;15.34;42.47
55373;BME280;41249;47.838;16.490;2023-04-23T08:37:16;98798.47;;;15.34;44.01
55373;BME280;41249;47.838;16.490;2023-04-23T08:39:56;98798.97;;;15.58;43.13
55373;BME280;41249;47.838;16.490;2023-04-23T08:42:23;98793.06;;;15.68;43.01
55373;BME280;41249;47.838;16.490;2023-04-23T08:44:52;98795.84;;;15.55;42.14
55373;BME280;41249;47.838;16.490;2023-04-23T08:47:19;98789.91;;;15.53;42.12
55373;BME280;41249;47.838;16.490;2023-04-23T08:49:50;98787.56;;;15.65;43.25
55373;BME280;41249;47.838;16.490;2023-04-23T08:52:21;98787.28;;;15.88;42.85
55373;BME280;41249;47.838;16.490;2023-04-23T08:54:49;98791.69;;;16.01;41.60
55373;BME280;41249;47.838;16.490;2023-04-23T08:57:18;98788.44;;;16.41;42.11
55373;BME280;41249;47.838;16.490;2023-04-23T08:59:45;98788.03;;;16.89;40.44
55373;BME280;41249;47.838;16.490;2023-04-23T09:02:12;98790.06;;;17.23;42.22
55373;BME280;41249;47.838;16.490;2023-04-23T09:04:41;98790.44;;;17.68;39.50
55373;BME280;41249;47.838;16.490;2023-04-23T09:07:07;98788.06;;;17.88;38.83
55373;BME280;41249;47.838;16.490;2023-04-23T09:09:37;98783.03;;;17.83;40.74
55373;BME280;41249;47.838;16.490;2023-04-23T09:12:07;98784.78;;;18.21;40.41
55373;BME280;41249;47.838;16.490;2023-04-23T09:14:34;98771.31;;;18.16;39.35
55373;BME280;41249;47.838;16.490;2023-04-23T09:17:01;98770.03;;;18.07;39.02
55373;BME280;41249;47.838;16.490;2023-04-23T09:19:28;98767.13;;;18.20;39.54
55373;BME280;41249;47.838;16.490;2023-04-23T09:21:54;98774.19;;;18.34;39.29
55373;BME280;41249;47.838;16.490;2023-04-23T09:24:21;98770.69;;;18.51;39.79
55373;BME280;41249;47.838;16.490;2023-04-23T09:26:49;98758.28;;;18.31;39.28
55373;BME280;41249;47.838;16.490;2023-04-23T09:29:16;98768.66;;;18.52;39.15
55373;BME280;41249;47.838;16.490;2023-04-23T09:31:45;98756.31;;;18.49;37.71
55373;BME280;41249;47.838;16.490;2023-04-23T09:34:16;98759.91;;;18.50;38.35
55373;BME280;41249;47.838;16.490;2023-04-23T09:36:46;98760.31;;;18.88;38.10
55373;BME280;41249;47.838;16.490;2023-04-23T09:39:15;98754.69;;;18.88;36.78
55373;BME280;41249;47.838;16.490;2023-04-23T09:41:42;98759.59;;;18.57;38.41
55373;BME280;41249;47.838;16.490;2023-04-23T09:44:09;98748.19;;;18.51;38.53
55373;BME280;41249;47.838;16.490;2023-04-23T09:46:41;98750.28;;;18.78;38.35
55373;BME280;41249;47.838;16.490;2023-04-23T09:49:09;98755.09;;;18.68;38.37
55373;BME280;41249;47.838;16.490;2023-04-23T09:51:43;98746.81;;;18.65;38.12
55373;BME280;41249;47.838;16.490;2023-04-23T09:54:13;98757.28;;;18.55;37.09
55373;BME280;41249;47.838;16.490;2023-04-23T09:56:40;98747.25;;;18.45;37.90
55373;BME280;41249;47.838;16.490;2023-04-23T09:59:18;98745.75;;;18.81;38.52
55373;BME280;41249;47.838;16.490;2023-04-23T10:01:44;98736.56;;;19.07;37.56
55373;BME280;41249;47.838;16.490;2023-04-23T10:04:13;98741.88;;;19.23;37.83
55373;BME280;41249;47.838;16.490;2023-04-23T10:06:43;98730.00;;;19.19;34.70
55373;BME280;41249;47.838;16.490;2023-04-23T10:09:29;98733.09;;;19.03;37.62
55373;BME280;41249;47.838;16.490;2023-04-23T10:11:59;98739.81;;;18.97;36.97
55373;BME280;41249;47.838;16.490;2023-04-23T10:14:30;98734.66;;;18.86;36.95
55373;BME280;41249;47.838;16.490;2023-04-23T10:16:57;98727.31;;;18.89;37.00
55373;BME280;41249;47.838;16.490;2023-04-23T10:19:24;98730.28;;;18.94;36.41
55373;BME280;41249;47.838;16.490;2023-04-23T10:21:53;98725.44;;;19.04;36.14
55373;BME280;41249;47.838;16.490;2023-04-23T10:24:34;98721.53;;;19.28;35.45
55373;BME280;41249;47.838;16.490;2023-04-23T10:27:03;98722.75;;;19.55;36.35
55373;BME280;41249;47.838;16.490;2023-04-23T10:29:31;98712.09;;;19.59;35.61
55373;BME280;41249;47.838;16.490;2023-04-23T10:32:02;98714.47;;;19.60;35.91
55373;BME280;41249;47.838;16.490;2023-04-23T10:34:29;98718.31;;;19.72;35.65
55373;BME280;41249;47.838;16.490;2023-04-23T10:36:56;98714.84;;;19.86;34.77
55373;BME280;41249;47.838;16.490;2023-04-23T10:39:29;98706.13;;;19.75;34.11
55373;BME280;41249;47.838;16.490;2023-04-23T10:41:57;98710.56;;;19.58;35.59
55373;BME280;41249;47.838;16.490;2023-04-23T10:44:30;98709.28;;;19.59;35.23
55373;BME280;41249;47.838;16.490;2023-04-23T10:47:16;98710.31;;;19.88;33.53
55373;BME280;41249;47.838;16.490;2023-04-23T10:49:43;98708.00;;;20.11;34.55
55373;BME280;41249;47.838;16.490;2023-04-23T10:52:13;98702.81;;;20.18;34.32
55373;BME280;41249;47.838;16.490;2023-04-23T10:54:47;98700.13;;;20.24;33.91
55373;BME280;41249;47.838;16.490;2023-04-23T10:57:14;98697.72;;;20.08;32.72
55373;BME280;41249;47.838;16.490;2023-04-23T10:59:50;98710.09;;;20.01;33.95
55373;BME280;41249;47.838;16.490;2023-04-23T11:02:17;98703.81;;;20.06;33.99
55373;BME280;41249;47.838;16.490;2023-04-23T11:04:44;98693.75;;;20.14;33.79
55373;BME280;41249;47.838;16.490;2023-04-23T11:07:11;98697.88;;;20.04;33.68
55373;BME280;41249;47.838;16.490;2023-04-23T11:09:42;98698.31;;;20.12;33.61
55373;BME280;41249;47.838;16.490;2023-04-23T11:14:50;98689.81;;;20.21;33.00
55373;BME280;41249;47.838;16.490;2023-04-23T11:17:19;98689.78;;;20.30;33.56
55373;BME280;41249;47.838;16.490;2023-04-23T11:22:35;98688.19;;;20.05;33.20
55373;BME280;41249;47.838;16.490;2023-04-23T11:25:02;98674.63;;;20.18;32.76
55373;BME280;41249;47.838;16.490;2023-04-23T11:27:29;98685.38;;;20.29;32.46
55373;BME280;41249;47.838;16.490;2023-04-23T11:29:56;98682.84;;;20.07;32.64
55373;BME280;41249;47.838;16.490;2023-04-23T11:32:25;98671.22;;;20.14;32.95
55373;BME280;41249;47.838;16.490;2023-04-23T11:34:53;98678.72;;;20.17;32.94
55373;BME280;41249;47.838;16.490;2023-04-23T11:37:20;98672.97;;;20.35;32.98
55373;BME280;41249;47.838;16.490;2023-04-23T11:39:46;98675.31;;;20.37;32.71
55373;BME280;41249;47.838;16.490;2023-04-23T11:42:14;98668.88;;;20.13;32.53
55373;BME280;41249;47.838;16.490;2023-04-23T11:44:44;98669.53;;;20.08;32.93
55373;BME280;41249;47.838;16.490;2023-04-23T11:47:12;98665.09;;;20.16;32.75
55373;BME280;41249;47.838;16.490;2023-04-23T11:49:40;98664.00;;;20.13;32.45
55373;BME280;41249;47.838;16.490;2023-04-23T11:52:08;98660.72;;;20.15;32.12
55373;BME280;41249;47.838;16.490;2023-04-23T11:54:35;98652.19;;;20.33;31.89
55373;BME280;41249;47.838;16.490;2023-04-23T11:57:02;98658.47;;;20.28;32.51
55373;BME280;41249;47.838;16.490;2023-04-23T11:59:29;98650.06;;;20.42;32.49
55373;BME280;41249;47.838;16.490;2023-04-23T12:01:57;98651.59;;;20.52;32.67
55373;BME280;41249;47.838;16.490;2023-04-23T12:04:25;98659.00;;;20.65;31.04
55373;BME280;41249;47.838;16.490;2023-04-23T12:06:52;98651.88;;;20.54;31.85
55373;BME280;41249;47.838;16.490;2023-04-23T12:09:23;98662.75;;;20.38;31.87
55373;BME280;41249;47.838;16.490;2023-04-23T12:11:50;98650.59;;;20.32;32.06
55373;BME280;41249;47.838;16.490;2023-04-23T12:14:17;98639.75;;;20.39;31.70
55373;BME280;41249;47.838;16.490;2023-04-23T12:16:46;98639.91;;;20.45;31.77
55373;BME280;41249;47.838;16.490;2023-04-23T12:19:18;98639.41;;;20.46;32.28
55373;BME280;41249;47.838;16.490;2023-04-23T12:24:14;98637.66;;;20.73;32.04
55373;BME280;41249;47.838;16.490;2023-04-23T12:26:41;98638.31;;;20.68;32.19
55373;BME280;41249;47.838;16.490;2023-04-23T12:29:12;98632.72;;;20.58;32.18
55373;BME280;41249;47.838;16.490;2023-04-23T12:31:38;98636.13;;;20.39;32.26
55373;BME280;41249;47.838;16.490;2023-04-23T12:34:06;98631.94;;;20.34;31.39
55373;BME280;41249;47.838;16.490;2023-04-23T12:36:34;98637.88;;;20.13;32.79
55373;BME280;41249;47.838;16.490;2023-04-23T12:42:03;98628.19;;;19.81;32.03
55373;BME280;41249;47.838;16.490;2023-04-23T12:44:31;98629.00;;;19.72;32.54
55373;BME280;41249;47.838;16.490;2023-04-23T12:47:07;98630.22;;;19.71;32.52
55373;BME280;41249;47.838;16.490;2023-04-23T12:49:34;98629.94;;;19.69;32.29
55373;BME280;41249;47.838;16.490;2023-04-23T12:52:01;98621.94;;;19.77;32.28
55373;BME280;41249;47.838;16.490;2023-04-23T12:54:31;98619.72;;;19.90;32.86
55373;BME280;41249;47.838;16.490;2023-04-23T12:56:58;98619.91;;;19.68;30.61
55373;BME280;41249;47.838;16.490;2023-04-23T12:59:25;98621.97;;;19.68;32.32
55373;BME280;41249;47.838;16.490;2023-04-23T13:01:51;98614.13;;;19.72;32.59
55373;BME280;41249;47.838;16.490;2023-04-23T13:04:18;98608.66;;;19.68;32.29
55373;BME280;41249;47.838;16.490;2023-04-23T13:06:45;98603.66;;;19.72;32.04
55373;BME280;41249;47.838;16.490;2023-04-23T13:09:11;98606.44;;;19.81;31.78